Time;durP1;ratioP1;P1;durP2;ratioP2;P2;SDS_P1;SDS_P2;PMS_P1;PMS_P2;Temp;Humidity;BMP_temperature;BMP_pressure;BME280_temperature;BME280_humidity;BME280_pressure;Samples;Min_cycle;Max_cycle;Signal;HPM_P1;HPM_P2
2023/05/03 00:00:15;;;;;;;2.35;1.48;;;;;;;16.25;100.00;94676.75;5024449;28;20096;-91
2023/05/03 00:02:43;;;;;;;1.42;1.20;;;;;;;16.16;100.00;94675.88;5024655;28;20033;-93
2023/05/03 00:05:11;;;;;;;1.25;1.15;;;;;;;16.34;100.00;94673.38;5040474;28;20033;-92
2023/05/03 00:07:36;;;;;;;2.67;1.75;;;;;;;15.63;100.00;94677.84;5023942;28;20036;-92
2023/05/03 00:10:03;;;;;;;2.17;1.10;;;;;;;15.57;100.00;94678.25;5024341;28;20434;-91
2023/05/03 00:12:28;;;;;;;2.35;1.85;;;;;;;16.02;100.00;94675.88;5040875;28;20434;-92
2023/05/03 00:14:53;;;;;;;1.65;1.30;;;;;;;15.56;100.00;94669.53;5024499;28;20131;-91
2023/05/03 00:20:41;;;;;;;1.30;1.20;;;;;;;15.82;100.00;94663.81;5057996;28;20040;-93
2023/05/03 00:23:07;;;;;;;0.80;0.80;;;;;;;15.86;100.00;94667.41;5024190;28;20029;-91
2023/05/03 00:25:33;;;;;;;3.20;0.80;;;;;;;16.16;100.00;94667.16;5040392;28;20035;-92
2023/05/03 00:27:58;;;;;;;0.98;0.85;;;;;;;16.01;100.00;94662.94;5024002;28;20435;-92
2023/05/03 00:30:24;;;;;;;0.80;0.80;;;;;;;16.27;100.00;94657.94;5024053;28;20132;-92
2023/05/03 00:32:50;;;;;;;0.60;0.60;;;;;;;14.88;100.00;94664.56;5024035;28;20025;-92
2023/05/03 00:35:16;;;;;;;0.90;0.80;;;;;;;15.20;100.00;94655.09;5023864;28;20021;-92
2023/05/03 00:37:41;;;;;;;0.70;0.70;;;;;;;15.38;100.00;94655.31;5023756;28;20020;-92
2023/05/03 00:40:07;;;;;;;0.65;0.65;;;;;;;15.92;100.00;94653.09;5040021;28;20111;-92
2023/05/03 00:42:35;;;;;;;0.80;0.70;;;;;;;16.27;100.00;94662.44;5040053;28;20111;-93
2023/05/03 00:45:03;;;;;;;1.02;0.93;;;;;;;16.05;100.00;94656.00;5040031;28;20025;-92
2023/05/03 00:47:29;;;;;;;0.60;0.60;;;;;;;15.77;100.00;94662.03;5023912;28;20123;-92
2023/05/03 00:49:55;;;;;;;1.27;1.13;;;;;;;16.09;100.00;94657.00;5023604;28;20032;-93
2023/05/03 00:52:20;;;;;;;1.08;0.98;;;;;;;16.10;100.00;94656.69;5039799;28;20107;-93
2023/05/03 00:54:46;;;;;;;1.08;0.80;;;;;;;15.89;100.00;94647.56;5040115;28;20067;-93
2023/05/03 00:57:11;;;;;;;0.77;0.75;;;;;;;16.00;100.00;94656.91;5023654;28;20342;-93
2023/05/03 00:59:37;;;;;;;0.60;0.50;;;;;;;15.93;100.00;94661.78;5023520;28;20457;-92
2023/05/03 01:02:03;;;;;;;0.65;0.60;;;;;;;15.37;100.00;94662.47;5023491;28;20103;-92
2023/05/03 01:04:29;;;;;;;1.77;0.88;;;;;;;15.65;100.00;94657.25;5023478;28;20025;-92
2023/05/03 01:07:06;;;;;;;1.20;1.10;;;;;;;15.97;100.00;94660.91;5039643;28;20385;-92
2023/05/03 01:09:42;;;;;;;0.85;0.85;;;;;;;16.31;100.00;94651.00;5023295;28;20039;-92
2023/05/03 01:12:19;;;;;;;0.60;0.60;;;;;;;16.50;100.00;94650.88;5023629;28;20095;-92
2023/05/03 01:15:17;;;;;;;0.70;0.60;;;;;;;22.04;79.53;94650.31;5039526;28;20037;-93
2023/05/03 01:17:50;;;;;;;1.60;0.70;;;;;;;21.82;71.12;94648.88;5005936;28;20036;-92
2023/05/03 01:20:18;;;;;;;0.82;0.60;;;;;;;21.84;71.64;94658.09;5039512;28;20061;-93
2023/05/03 01:22:57;;;;;;;1.35;0.68;;;;;;;20.34;78.16;94653.25;5039411;28;20449;-92
2023/05/03 01:25:22;;;;;;;0.50;0.50;;;;;;;19.76;80.83;94661.63;5039643;28;20094;-92
2023/05/03 01:27:49;;;;;;;0.40;0.40;;;;;;;19.81;86.00;94660.66;5023599;28;20052;-93
2023/05/03 01:30:15;;;;;;;0.40;0.40;;;;;;;19.16;89.61;94666.75;5023451;28;20430;-92
2023/05/03 01:33:02;;;;;;;0.40;0.40;;;;;;;18.50;96.74;94663.91;5023174;28;20079;-92
2023/05/03 01:35:44;;;;;;;0.20;0.20;;;;;;;18.59;96.49;94661.28;5039617;28;20457;-92
2023/05/03 01:38:11;;;;;;;0.20;0.20;;;;;;;18.75;97.54;94650.22;5023100;28;20032;-94
2023/05/03 01:40:44;;;;;;;0.30;0.30;;;;;;;18.69;94.47;94648.78;5039369;28;20029;-93
2023/05/03 01:43:15;;;;;;;0.20;0.20;;;;;;;19.03;90.85;94647.25;5016863;28;20034;-93
2023/05/03 01:45:41;;;;;;;0.30;0.30;;;;;;;18.79;93.48;94646.63;5003241;28;20025;-92
2023/05/03 01:48:15;;;;;;;0.35;0.20;;;;;;;18.51;96.71;94651.44;5003468;28;20033;-92
2023/05/03 01:50:40;;;;;;;0.20;0.20;;;;;;;18.48;94.75;94652.81;5003089;28;20071;-93
2023/05/03 01:53:06;;;;;;;0.17;0.17;;;;;;;17.50;99.85;94652.81;5003209;28;20025;-92
2023/05/03 01:55:31;;;;;;;0.60;0.30;;;;;;;18.14;98.30;94656.97;5003335;28;20025;-92
2023/05/03 01:57:57;;;;;;;0.43;0.20;;;;;;;18.39;94.61;94648.59;5019361;28;20021;-92
2023/05/03 02:00:23;;;;;;;0.20;0.20;;;;;;;18.56;92.95;94647.84;5003868;28;20025;-92
2023/05/03 02:02:49;;;;;;;0.20;0.20;;;;;;;18.29;92.72;94645.19;5019657;28;20029;-92
2023/05/03 02:05:14;;;;;;;0.10;0.10;;;;;;;18.26;96.02;94645.78;5002670;28;20128;-92
2023/05/03 02:07:40;;;;;;;0.10;0.10;;;;;;;18.38;92.76;94647.84;5002954;28;20378;-92
2023/05/03 02:10:06;;;;;;;0.00;0.00;;;;;;;17.81;98.29;94647.50;5003024;28;20127;-93
2023/05/03 02:12:31;;;;;;;0.13;0.10;;;;;;;17.53;100.00;94633.66;5003086;28;20076;-92
2023/05/03 02:14:57;;;;;;;0.10;0.10;;;;;;;18.19;94.08;94634.84;5003085;28;20029;-93
2023/05/03 02:17:25;;;;;;;0.10;0.10;;;;;;;18.05;94.33;94638.41;5019351;28;20095;-93
2023/05/03 02:19:51;;;;;;;0.65;0.20;;;;;;;18.44;95.85;94635.22;5019336;28;20021;-92
2023/05/03 02:22:17;;;;;;;0.35;0.20;;;;;;;18.17;95.79;94640.47;5019239;28;20438;-92
2023/05/03 02:24:42;;;;;;;0.10;0.10;;;;;;;18.34;92.90;94637.06;5019473;28;20025;-92
2023/05/03 02:27:07;;;;;;;0.20;0.17;;;;;;;17.87;100.00;94640.19;5019435;28;20422;-92
2023/05/03 02:29:33;;;;;;;0.47;0.20;;;;;;;18.11;98.94;94639.06;5004678;28;20025;-92
2023/05/03 02:31:58;;;;;;;0.20;0.20;;;;;;;18.29;93.55;94623.16;5022721;28;20025;-93
2023/05/03 02:34:25;;;;;;;0.20;0.20;;;;;;;18.35;97.47;94643.13;5006651;28;20028;-92
2023/05/03 02:36:50;;;;;;;0.20;0.20;;;;;;;17.96;98.13;94637.56;5040203;28;20303;-92
2023/05/03 02:39:15;;;;;;;0.20;0.20;;;;;;;18.23;96.42;94644.53;5022396;28;20025;-93
2023/05/03 02:41:41;;;;;;;0.30;0.30;;;;;;;18.00;100.00;94638.50;5005920;28;20088;-93
2023/05/03 02:44:06;;;;;;;0.10;0.10;;;;;;;17.33;100.00;94633.09;5006278;28;20025;-93
2023/05/03 02:46:32;;;;;;;0.38;0.32;;;;;;;17.26;100.00;94635.41;5022406;28;20037;-93
2023/05/03 02:48:57;;;;;;;0.35;0.30;;;;;;;17.73;100.00;94634.22;5006297;28;20021;-93
2023/05/03 02:51:22;;;;;;;0.40;0.40;;;;;;;18.09;98.22;94642.00;5006171;28;20021;-93
2023/05/03 02:53:48;;;;;;;0.50;0.50;;;;;;;18.00;97.29;94638.50;5006160;28;20040;-93
2023/05/03 02:56:13;;;;;;;0.50;0.50;;;;;;;18.07;98.02;94640.72;5006264;28;20018;-94
2023/05/03 02:58:39;;;;;;;0.35;0.35;;;;;;;18.10;97.81;94634.84;5006430;28;20032;-92
2023/05/03 03:01:04;;;;;;;0.30;0.30;;;;;;;18.14;97.03;94627.03;5022195;28;20346;-93
2023/05/03 03:03:30;;;;;;;0.73;0.52;;;;;;;18.32;97.63;94635.81;5022260;28;20025;-94
2023/05/03 03:05:55;;;;;;;0.35;0.32;;;;;;;18.16;98.28;94635.47;5022115;28;20091;-93
2023/05/03 03:08:21;;;;;;;0.35;0.35;;;;;;;18.34;97.51;94625.66;5039626;28;20328;-94
2023/05/03 03:10:47;;;;;;;0.30;0.30;;;;;;;17.98;95.24;94629.31;5006195;28;20029;-93
2023/05/03 03:13:13;;;;;;;0.30;0.30;;;;;;;18.35;93.10;94628.00;5005793;28;20350;-93
2023/05/03 03:15:38;;;;;;;0.40;0.30;;;;;;;17.92;95.79;94623.38;5005334;28;20347;-93
2023/05/03 03:18:04;;;;;;;0.10;0.10;;;;;;;18.21;96.46;94637.97;5005509;28;20029;-93
2023/05/03 03:20:30;;;;;;;0.25;0.20;;;;;;;19.16;89.82;94627.72;5022009;28;20036;-93
2023/05/03 03:22:55;;;;;;;0.20;0.20;;;;;;;18.64;89.06;94634.59;5005591;28;20501;-92
2023/05/03 03:25:21;;;;;;;0.10;0.10;;;;;;;19.46;86.01;94634.97;5021610;28;20033;-94
2023/05/03 03:27:46;;;;;;;0.25;0.25;;;;;;;19.24;88.67;94631.47;5021395;28;20064;-93
2023/05/03 03:30:12;;;;;;;0.30;0.30;;;;;;;18.77;91.27;94643.47;5005269;28;20030;-93
2023/05/03 03:32:37;;;;;;;0.20;0.20;;;;;;;18.50;89.53;94640.03;5021461;28;20029;-93
2023/05/03 03:35:03;;;;;;;0.38;0.38;;;;;;;18.67;93.63;94643.81;5005427;28;20030;-92
2023/05/03 03:37:28;;;;;;;0.20;0.20;;;;;;;19.06;89.38;94652.72;5021851;28;20427;-93
2023/05/03 03:39:53;;;;;;;3.92;0.20;;;;;;;18.65;89.77;94653.97;5020629;28;20037;-93
2023/05/03 03:42:20;;;;;;;0.20;0.20;;;;;;;18.81;88.43;94648.19;5021419;28;20033;-93
2023/05/03 03:44:46;;;;;;;0.28;0.28;;;;;;;19.26;85.71;94650.50;5021590;28;20111;-92
2023/05/03 03:50:34;;;;;;;0.43;0.38;;;;;;;19.09;87.11;94653.19;5038818;28;20103;-92
2023/05/03 03:52:59;;;;;;;0.50;0.50;;;;;;;18.99;89.25;94656.91;5005092;28;20029;-93
2023/05/03 03:55:25;;;;;;;0.40;0.40;;;;;;;19.24;85.03;94654.56;5038738;28;20037;-93
2023/05/03 03:57:50;;;;;;;0.40;0.40;;;;;;;19.20;85.78;94663.19;5005058;28;20151;-92
2023/05/03 04:00:16;;;;;;;0.75;0.70;;;;;;;18.94;87.31;94661.28;5021016;28;20040;-93
2023/05/03 04:02:41;;;;;;;0.50;0.50;;;;;;;18.92;85.98;94666.13;5004988;28;20030;-94
2023/05/03 04:05:07;;;;;;;0.35;0.32;;;;;;;19.33;86.31;94658.75;5004790;28;20029;-93
2023/05/03 04:07:32;;;;;;;0.50;0.45;;;;;;;18.96;87.62;94665.50;5020187;28;20034;-93
2023/05/03 04:09:58;;;;;;;0.45;0.45;;;;;;;19.01;85.31;94668.81;5021040;28;20576;-92
2023/05/03 04:12:23;;;;;;;0.40;0.40;;;;;;;19.00;87.65;94666.47;5021501;28;20029;-93
2023/05/03 04:14:49;;;;;;;0.40;0.40;;;;;;;19.06;86.46;94662.56;5004554;28;20419;-95
2023/05/03 04:17:15;;;;;;;0.40;0.40;;;;;;;18.89;86.39;94676.59;5020788;28;20026;-92
2023/05/03 04:19:40;;;;;;;0.93;0.28;;;;;;;18.79;89.00;94675.03;5004733;28;20445;-93
2023/05/03 04:22:06;;;;;;;0.73;0.50;;;;;;;18.66;89.82;94674.09;5004469;28;20458;-94
2023/05/03 04:24:31;;;;;;;0.70;0.70;;;;;;;18.59;90.61;94671.91;5020693;28;20032;-93
2023/05/03 04:30:18;;;;;;;0.65;0.63;;;;;;;19.22;84.72;94684.09;5038249;28;20040;-92
2023/05/03 04:32:44;;;;;;;0.55;0.55;;;;;;;19.39;85.63;94677.97;5003833;28;20029;-93
2023/05/03 04:35:11;;;;;;;0.75;0.75;;;;;;;19.16;85.05;94686.16;5020448;28;20036;-92
2023/05/03 04:37:37;;;;;;;2.50;0.70;;;;;;;19.34;84.19;94692.19;5004342;28;20027;-93
2023/05/03 04:40:08;;;;;;;1.02;0.93;;;;;;;19.17;84.24;94686.91;5020216;28;20032;-92
2023/05/03 04:42:34;;;;;;;0.98;0.80;;;;;;;19.30;82.17;94688.63;5004899;28;20120;-93
2023/05/03 04:45:01;;;;;;;0.57;0.50;;;;;;;19.52;85.08;94694.06;5020365;28;20114;-91
2023/05/03 04:47:27;;;;;;;1.58;0.60;;;;;;;18.97;87.41;94705.03;5020433;28;20450;-87
2023/05/03 04:49:53;;;;;;;1.30;0.60;;;;;;;18.68;85.75;94703.75;5020008;28;20026;-92
2023/05/03 04:52:18;;;;;;;1.27;0.40;;;;;;;19.25;83.46;94701.28;5003684;28;20060;-92
2023/05/03 04:54:44;;;;;;;0.43;0.43;;;;;;;19.39;81.36;94709.09;5003690;28;20454;-92
2023/05/03 04:57:10;;;;;;;1.23;0.60;;;;;;;18.48;83.74;94716.50;5003722;28;20048;-89
2023/05/03 04:59:35;;;;;;;1.23;0.57;;;;;;;19.21;82.25;94719.72;5003467;28;20068;-89
2023/05/03 05:02:01;;;;;;;0.20;0.20;;;;;;;18.36;85.24;94719.75;5019961;28;20037;-88
2023/05/03 05:04:26;;;;;;;0.40;0.40;;;;;;;18.79;83.20;94731.56;5019821;28;20108;-89
2023/05/03 05:06:53;;;;;;;0.70;0.40;;;;;;;19.25;83.45;94731.28;5003193;28;20033;-89
2023/05/03 05:09:29;;;;;;;0.93;0.50;;;;;;;19.72;79.96;94733.25;5003299;28;20427;-89
2023/05/03 05:11:55;;;;;;;0.70;0.60;;;;;;;19.32;81.37;94731.59;5020215;28;20415;-89
2023/05/03 05:14:21;;;;;;;0.38;0.38;;;;;;;18.09;86.59;94742.75;5003354;28;20075;-89
2023/05/03 05:16:46;;;;;;;0.60;0.57;;;;;;;18.69;83.38;94739.81;5003381;28;20054;-89
2023/05/03 05:19:12;;;;;;;0.80;0.40;;;;;;;18.85;82.97;94739.38;5003390;28;20037;-90
2023/05/03 05:21:38;;;;;;;0.80;0.40;;;;;;;19.44;83.72;94744.25;5019198;28;20123;-92
2023/05/03 05:24:03;;;;;;;0.30;0.30;;;;;;;19.10;85.62;94739.72;5003502;28;20036;-93
2023/05/03 05:26:29;;;;;;;0.50;0.50;;;;;;;18.93;86.81;94749.19;5002722;28;20033;-93
2023/05/03 05:28:57;;;;;;;0.50;0.50;;;;;;;19.23;88.90;94749.41;5002887;28;20427;-94
2023/05/03 05:31:23;;;;;;;0.35;0.32;;;;;;;19.17;91.28;94754.09;5019627;28;20190;-93
2023/05/03 05:33:49;;;;;;;0.45;0.45;;;;;;;19.04;89.67;94760.34;5003245;28;20057;-91
2023/05/03 05:36:14;;;;;;;0.95;0.55;;;;;;;19.03;90.49;94748.16;5019329;28;20426;-90
2023/05/03 05:38:40;;;;;;;0.52;0.40;;;;;;;19.13;89.13;94755.81;5003505;28;20168;-91
2023/05/03 05:41:05;;;;;;;0.47;0.40;;;;;;;18.68;91.14;94762.13;5003175;28;20036;-93
2023/05/03 05:43:31;;;;;;;0.98;0.88;;;;;;;18.69;92.48;94766.34;5019619;28;20029;-92
2023/05/03 05:45:57;;;;;;;1.25;0.80;;;;;;;19.15;90.83;94774.09;4999526;28;20473;-91
2023/05/03 05:48:22;;;;;;;1.20;1.10;;;;;;;18.57;90.28;94768.81;4983587;28;20030;-92
2023/05/03 05:50:48;;;;;;;1.80;1.30;;;;;;;18.87;91.44;94766.38;4983564;28;20056;-90
2023/05/03 05:53:13;;;;;;;3.47;1.05;;;;;;;18.59;92.35;94774.59;4983702;28;20061;-91
2023/05/03 05:55:39;;;;;;;1.35;1.20;;;;;;;18.85;91.46;94777.28;4983647;28;20121;-92
2023/05/03 05:58:04;;;;;;;1.30;1.20;;;;;;;18.53;92.74;94776.59;5015887;28;20057;-92
2023/05/03 06:00:30;;;;;;;1.45;1.15;;;;;;;18.82;93.12;94780.56;4983583;28;20030;-91
2023/05/03 06:02:55;;;;;;;1.20;1.10;;;;;;;19.28;87.91;94785.66;5016470;28;20120;-92
2023/05/03 06:05:21;;;;;;;11.27;1.52;;;;;;;19.11;87.51;94783.78;4987685;28;20321;-92
2023/05/03 06:07:47;;;;;;;1.38;1.20;;;;;;;19.83;81.23;94781.56;5003392;28;20395;-92
2023/05/03 06:10:12;;;;;;;1.40;1.00;;;;;;;17.81;91.88;94784.53;5003381;28;20080;-92
2023/05/03 06:12:38;;;;;;;1.70;0.90;;;;;;;19.23;82.39;94791.91;4987266;28;20053;-91
2023/05/03 06:15:04;;;;;;;1.80;1.30;;;;;;;18.79;83.89;94792.63;4987198;28;20040;-91
2023/05/03 06:17:30;;;;;;;1.17;0.95;;;;;;;19.28;81.79;94790.97;5003188;28;20026;-88
2023/05/03 06:19:56;;;;;;;1.00;0.80;;;;;;;19.42;80.40;94793.47;5020772;28;20060;-88
2023/05/03 06:22:21;;;;;;;1.23;0.90;;;;;;;19.41;78.71;94791.91;5002908;28;20320;-88
2023/05/03 06:24:47;;;;;;;1.88;1.20;;;;;;;19.38;80.51;94797.88;5020340;28;20080;-89
2023/05/03 06:27:12;;;;;;;1.58;1.00;;;;;;;18.99;81.02;94793.13;5002761;28;20026;-88
2023/05/03 06:29:38;;;;;;;1.17;0.90;;;;;;;19.24;79.68;94801.44;5020319;28;20351;-90
2023/05/03 06:32:03;;;;;;;0.73;0.73;;;;;;;19.37;79.29;94799.72;5020340;28;20040;-94
2023/05/03 06:34:29;;;;;;;0.98;0.88;;;;;;;19.47;79.89;94801.28;5003397;28;20036;-93
2023/05/03 06:40:16;;;;;;;1.25;1.15;;;;;;;19.79;77.41;94801.88;5020542;28;20041;-93
2023/05/03 06:42:42;;;;;;;1.13;0.80;;;;;;;19.84;77.45;94809.69;4986962;28;20351;-94
2023/05/03 06:45:08;;;;;;;1.00;0.75;;;;;;;19.79;74.88;94812.50;5003092;28;20033;-95
2023/05/03 06:47:33;;;;;;;0.70;0.70;;;;;;;19.70;77.74;94817.06;5002919;28;20037;-95
2023/05/03 06:49:58;;;;;;;1.08;0.82;;;;;;;19.77;77.03;94820.81;5003016;28;20030;-93
2023/05/03 06:52:24;;;;;;;0.70;0.70;;;;;;;19.82;78.47;94806.56;4986820;28;20085;-93
2023/05/03 06:54:50;;;;;;;0.85;0.60;;;;;;;19.61;78.00;94809.88;5003235;28;20030;-94
2023/05/03 06:57:15;;;;;;;0.50;0.50;;;;;;;20.13;76.65;94821.56;4986686;28;20028;-95
2023/05/03 06:59:41;;;;;;;1.08;0.80;;;;;;;20.38;74.43;94813.81;4986993;28;20030;-93
2023/05/03 07:02:06;;;;;;;0.63;0.63;;;;;;;19.80;77.99;94815.97;5002752;28;20029;-93
2023/05/03 07:04:32;;;;;;;0.65;0.65;;;;;;;20.34;74.43;94816.34;4986504;28;20026;-95
2023/05/03 07:10:19;;;;;;;1.27;0.90;;;;;;;20.21;73.85;94809.34;5019990;28;20036;-94
2023/05/03 07:12:44;;;;;;;0.50;0.50;;;;;;;19.99;75.68;94815.66;4986383;28;20347;-94
2023/05/03 07:15:10;;;;;;;1.05;0.90;;;;;;;20.02;74.54;94821.13;5001837;28;20030;-93
2023/05/03 07:17:35;;;;;;;0.60;0.60;;;;;;;19.90;77.53;94821.72;4986307;28;20509;-93
2023/05/03 07:20:02;;;;;;;1.10;1.00;;;;;;;19.41;80.49;94819.25;5002603;28;20030;-94
2023/05/03 07:22:27;;;;;;;1.58;1.45;;;;;;;20.12;74.92;94824.53;4986348;28;20026;-93
2023/05/03 07:24:53;;;;;;;2.05;1.70;;;;;;;20.06;75.26;94823.91;5002215;28;20029;-94
2023/05/03 07:27:19;;;;;;;2.80;2.60;;;;;;;19.48;76.67;94813.47;5002187;28;20029;-91
2023/05/03 07:29:45;;;;;;;2.55;2.35;;;;;;;19.20;78.90;94827.03;4986099;28;20037;-93
2023/05/03 07:32:11;;;;;;;2.60;2.10;;;;;;;19.70;76.96;94825.03;5002193;28;20022;-94
2023/05/03 07:34:36;;;;;;;2.13;1.92;;;;;;;19.35;79.10;94825.81;4986159;28;20025;-93
2023/05/03 07:37:02;;;;;;;2.45;1.90;;;;;;;20.03;75.29;94830.66;4985958;28;20026;-92
2023/05/03 07:39:27;;;;;;;3.25;2.20;;;;;;;20.14;74.36;94825.78;5002203;28;20037;-93
2023/05/03 07:41:52;;;;;;;3.22;2.83;;;;;;;19.82;75.26;94830.50;4985777;28;20439;-93
2023/05/03 07:44:18;;;;;;;3.90;3.05;;;;;;;19.52;74.41;94835.69;4985767;28;20084;-93
2023/05/03 07:46:43;;;;;;;5.28;2.70;;;;;;;19.80;74.40;94835.38;4985564;28;20033;-93
2023/05/03 07:49:08;;;;;;;3.20;2.90;;;;;;;19.92;74.25;94827.53;4985605;28;20032;-92
2023/05/03 07:51:37;;;;;;;2.60;2.40;;;;;;;20.16;75.46;94825.47;5001811;28;20049;-93
2023/05/03 07:54:04;;;;;;;3.00;2.47;;;;;;;19.89;75.96;94828.13;5001626;28;20029;-92
2023/05/03 07:56:29;;;;;;;2.42;2.22;;;;;;;19.96;75.43;94830.34;4985505;28;20042;-92
2023/05/03 07:58:56;;;;;;;2.58;2.38;;;;;;;20.18;75.07;94833.91;5001549;28;20462;-94
2023/05/03 08:01:21;;;;;;;7.72;2.88;;;;;;;19.82;72.37;94838.47;4985702;28;20064;-93
2023/05/03 08:03:50;;;;;;;3.55;2.83;;;;;;;19.79;75.73;94841.75;5001871;28;20062;-93
2023/05/03 08:06:18;;;;;;;3.15;2.60;;;;;;;19.96;74.76;94834.91;5001658;28;20049;-94
2023/05/03 08:08:44;;;;;;;2.83;2.53;;;;;;;19.85;77.83;94837.06;4985246;28;20036;-92
2023/05/03 08:11:10;;;;;;;2.53;1.98;;;;;;;20.11;77.14;94839.72;4985307;28;20029;-93
2023/05/03 08:13:36;;;;;;;3.83;2.40;;;;;;;20.46;75.17;94841.50;4985082;28;20057;-92
2023/05/03 08:16:02;;;;;;;3.00;2.17;;;;;;;19.94;78.12;94839.72;5001205;28;20034;-93
2023/05/03 08:18:27;;;;;;;2.70;1.70;;;;;;;20.66;74.99;94837.34;4985001;28;20030;-92
2023/05/03 08:20:53;;;;;;;1.85;1.30;;;;;;;20.44;71.07;94839.16;4984945;28;20033;-92
2023/05/03 08:23:18;;;;;;;1.20;1.10;;;;;;;20.57;69.12;94840.03;4984924;28;20033;-93
2023/05/03 08:25:46;;;;;;;1.38;1.10;;;;;;;20.69;69.95;94844.69;4984811;28;20030;-93
2023/05/03 08:28:12;;;;;;;1.23;1.08;;;;;;;20.88;67.36;94848.84;5000001;28;20466;-92
2023/05/03 08:30:37;;;;;;;9.82;1.60;;;;;;;20.35;69.93;94846.38;4984906;28;20029;-92
2023/05/03 08:33:03;;;;;;;1.50;1.40;;;;;;;20.32;70.73;94855.00;5000860;28;20087;-92
2023/05/03 08:35:28;;;;;;;3.10;2.20;;;;;;;20.61;68.16;94848.16;4985027;28;20111;-92
2023/05/03 08:37:54;;;;;;;2.15;1.50;;;;;;;20.71;66.96;94850.47;4984623;28;20029;-92
2023/05/03 08:40:21;;;;;;;2.35;1.75;;;;;;;20.76;69.57;94855.63;5001020;28;20029;-92
2023/05/03 08:42:46;;;;;;;2.33;1.92;;;;;;;20.77;67.99;94859.84;5000625;28;20033;-92
2023/05/03 08:45:15;;;;;;;3.00;1.80;;;;;;;21.13;65.59;94860.47;5017028;28;20424;-92
2023/05/03 08:47:44;;;;;;;3.08;2.35;;;;;;;21.13;67.18;94860.47;4984729;28;20498;-93
2023/05/03 08:50:11;;;;;;;3.70;2.38;;;;;;;20.47;70.76;94861.69;5001015;28;20069;-93
2023/05/03 08:52:41;;;;;;;3.47;2.15;;;;;;;21.30;66.94;94867.56;4984315;28;20061;-92
2023/05/03 08:55:08;;;;;;;2.78;2.30;;;;;;;21.09;67.53;94864.88;4984481;28;20351;-92
2023/05/03 08:57:36;;;;;;;2.65;2.08;;;;;;;20.36;69.84;94863.91;4984665;28;20032;-93
2023/05/03 09:00:05;;;;;;;3.33;2.25;;;;;;;20.43;69.00;94864.19;5000546;28;20034;-92
2023/05/03 09:02:33;;;;;;;3.45;2.47;;;;;;;20.17;71.56;94865.03;4984559;28;20348;-92
2023/05/03 09:04:59;;;;;;;6.88;2.63;;;;;;;20.33;71.78;94870.66;4984640;28;20030;-92
2023/05/03 09:07:25;;;;;;;2.55;1.92;;;;;;;20.52;68.68;94874.81;4984020;28;20060;-92
2023/05/03 09:09:50;;;;;;;2.25;1.85;;;;;;;20.63;69.55;94880.56;5000499;28;20026;-93
2023/05/03 09:12:35;;;;;;;2.95;1.95;;;;;;;21.42;64.83;94876.75;4984096;28;20120;-92
2023/05/03 09:15:02;;;;;;;3.17;2.22;;;;;;;20.78;67.28;94876.59;5000586;28;20030;-92
2023/05/03 09:17:27;;;;;;;2.35;1.67;;;;;;;20.73;66.90;94887.41;4983919;28;20025;-92
2023/05/03 09:19:55;;;;;;;4.40;1.80;;;;;;;21.05;68.59;94877.28;4984137;28;20032;-92
2023/05/03 09:22:31;;;;;;;1.77;1.58;;;;;;;21.20;67.02;94878.59;4983857;28;20030;-92
2023/05/03 09:24:58;;;;;;;2.05;1.27;;;;;;;20.84;68.00;94877.25;4984115;28;20084;-93
2023/05/03 09:27:25;;;;;;;2.08;1.45;;;;;;;21.32;64.63;94878.69;4983613;28;20029;-92
2023/05/03 09:29:51;;;;;;;1.85;1.60;;;;;;;21.28;63.49;94877.78;4984161;28;20030;-92
2023/05/03 09:32:16;;;;;;;3.78;1.35;;;;;;;21.13;64.20;94879.13;4984172;28;20053;-92
2023/05/03 09:34:43;;;;;;;1.42;1.23;;;;;;;21.61;64.41;94876.31;4983873;28;20029;-92
2023/05/03 09:37:08;;;;;;;2.05;1.30;;;;;;;21.10;65.87;94887.00;5007516;28;20048;-91
2023/05/03 09:39:35;;;;;;;3.92;1.45;;;;;;;21.01;66.88;94879.00;5002410;28;20025;-90
2023/05/03 09:42:17;;;;;;;1.70;1.45;;;;;;;21.47;63.03;94876.56;5002775;28;20099;-90
2023/05/03 09:44:52;;;;;;;1.77;1.20;;;;;;;22.12;61.50;94886.09;5002544;28;20442;-90
2023/05/03 09:47:18;;;;;;;1.42;1.33;;;;;;;21.59;60.27;94886.50;5019347;28;20030;-90
2023/05/03 09:49:44;;;;;;;4.30;1.45;;;;;;;21.52;62.00;94886.25;5018805;28;20330;-90
2023/05/03 09:52:10;;;;;;;3.47;1.83;;;;;;;21.03;63.07;94876.84;5018938;28;20104;-90
2023/05/03 09:54:35;;;;;;;1.90;1.30;;;;;;;21.63;61.87;94886.63;5002727;28;20037;-91
2023/05/03 09:57:05;;;;;;;4.20;1.38;;;;;;;21.94;60.61;94880.13;5002590;28;20044;-90
2023/05/03 09:59:35;;;;;;;1.70;1.30;;;;;;;21.99;61.62;94879.97;5002671;28;20033;-90
2023/05/03 10:02:06;;;;;;;1.98;1.00;;;;;;;22.16;61.53;94887.78;5002201;28;20108;-90
2023/05/03 10:04:40;;;;;;;1.45;1.20;;;;;;;21.31;67.00;94882.47;5002719;28;20025;-91
2023/05/03 10:07:09;;;;;;;1.50;1.30;;;;;;;21.19;64.26;94877.84;5002596;28;20069;-89
2023/05/03 10:09:39;;;;;;;1.70;1.40;;;;;;;20.64;67.05;94882.13;5036871;28;20030;-89
2023/05/03 10:12:07;;;;;;;2.08;1.50;;;;;;;20.47;67.94;94889.06;5019320;28;20026;-90
2023/05/03 10:14:33;;;;;;;1.90;1.70;;;;;;;20.43;67.46;94882.81;5002250;28;20368;-90
2023/05/03 10:17:14;;;;;;;2.53;1.98;;;;;;;21.27;66.92;94870.91;5002522;28;20029;-91
2023/05/03 10:19:50;;;;;;;2.97;1.45;;;;;;;21.39;67.13;94869.41;5018643;28;20036;-90
2023/05/03 10:22:15;;;;;;;2.67;1.30;;;;;;;21.29;66.33;94868.69;5018685;28;20029;-90
2023/05/03 10:24:56;;;;;;;1.67;1.20;;;;;;;22.00;64.49;94882.28;5036746;28;20034;-90
2023/05/03 10:27:21;;;;;;;3.97;1.83;;;;;;;21.94;64.94;94878.25;5036145;28;20029;-90
2023/05/03 10:29:50;;;;;;;6.25;1.85;;;;;;;21.73;63.19;94880.94;5002390;28;20025;-90
2023/05/03 10:32:41;;;;;;;3.40;1.38;;;;;;;22.32;61.78;94873.81;5019101;28;20022;-91
2023/05/03 10:35:14;;;;;;;2.33;1.48;;;;;;;21.71;65.98;94869.84;5019444;28;20032;-91
2023/05/03 10:37:41;;;;;;;3.65;1.52;;;;;;;22.66;58.82;94863.88;5018691;28;20024;-91
2023/05/03 10:40:12;;;;;;;1.55;1.30;;;;;;;22.88;60.76;94867.25;5018570;28;20025;-90
2023/05/03 10:42:38;;;;;;;3.17;1.60;;;;;;;22.90;59.58;94861.59;5002338;28;20025;-91
2023/05/03 10:45:07;;;;;;;3.20;1.40;;;;;;;23.24;60.55;94868.34;5018404;28;20459;-90
2023/05/03 10:47:33;;;;;;;1.77;1.45;;;;;;;23.21;58.32;94869.00;5002244;28;20030;-91
2023/05/03 10:50:14;;;;;;;2.33;1.40;;;;;;;23.78;56.48;94858.44;5002595;28;20032;-91
2023/05/03 10:52:39;;;;;;;2.45;1.30;;;;;;;23.53;55.40;94863.88;5022031;28;20029;-91
2023/05/03 10:55:15;;;;;;;3.47;1.23;;;;;;;23.69;55.51;94858.59;5039479;28;20029;-91
2023/05/03 10:57:42;;;;;;;2.03;1.23;;;;;;;23.94;54.63;94855.03;5021822;28;20021;-90
2023/05/03 11:00:12;;;;;;;2.83;1.10;;;;;;;24.19;53.84;94862.97;5021706;28;20025;-91
2023/05/03 11:02:42;;;;;;;3.92;1.00;;;;;;;24.75;53.18;94861.31;5005405;28;20450;-91
2023/05/03 11:05:09;;;;;;;1.88;1.10;;;;;;;24.67;52.86;94855.75;5022407;28;20025;-90
2023/05/03 11:07:36;;;;;;;1.70;1.20;;;;;;;24.66;52.89;94859.56;5021571;28;20036;-91
2023/05/03 11:10:15;;;;;;;1.35;1.00;;;;;;;25.26;51.60;94852.53;5005615;28;20025;-91
2023/05/03 11:12:41;;;;;;;1.25;0.90;;;;;;;24.03;54.54;94852.22;5005371;28;20466;-90
2023/05/03 11:15:06;;;;;;;2.78;1.30;;;;;;;24.58;53.55;94849.81;5005423;28;20025;-90
2023/05/03 11:17:32;;;;;;;5.80;1.15;;;;;;;24.78;51.79;94852.59;5021574;28;20048;-91
2023/05/03 11:19:58;;;;;;;1.42;0.98;;;;;;;25.07;50.63;94853.25;5021428;28;20067;-91
2023/05/03 11:22:23;;;;;;;3.90;1.20;;;;;;;23.49;56.00;94849.59;5021305;28;20119;-90
2023/05/03 11:24:50;;;;;;;2.35;1.10;;;;;;;24.43;53.66;94851.34;5021428;28;20031;-90
2023/05/03 11:27:23;;;;;;;0.98;0.88;;;;;;;25.02;53.98;94842.81;5021349;28;20358;-90
2023/05/03 11:29:48;;;;;;;1.00;0.90;;;;;;;24.85;54.38;94847.41;5021300;28;20022;-90
2023/05/03 11:32:15;;;;;;;1.80;1.20;;;;;;;24.87;53.87;94855.09;5005096;28;20071;-91
2023/05/03 11:34:40;;;;;;;1.63;1.10;;;;;;;25.04;53.65;94848.59;5021276;28;20021;-91
2023/05/03 11:37:07;;;;;;;3.88;1.10;;;;;;;24.99;53.02;94841.59;5021357;28;20112;-91
2023/05/03 11:39:33;;;;;;;1.63;1.00;;;;;;;25.16;51.92;94848.50;5004851;28;20449;-91
2023/05/03 11:42:05;;;;;;;2.33;1.10;;;;;;;24.53;50.57;94852.72;5004734;28;20025;-90
2023/05/03 11:44:30;;;;;;;2.33;1.15;;;;;;;23.40;52.32;94846.31;5004680;28;20060;-91
2023/05/03 11:46:56;;;;;;;1.55;1.35;;;;;;;23.93;52.11;94842.78;5020810;28;20079;-91